sensor_id;sensor_type;location;lat;lon;timestamp;P1;durP1;ratioP1;P2;durP2;ratioP2
16642;SDS011;8435;52.184;5.406;2023-12-28T00:02:04;3.57;;;2.43;;
16642;SDS011;8435;52.184;5.406;2023-12-28T00:04:31;3.37;;;2.30;;
16642;SDS011;8435;52.184;5.406;2023-12-28T00:07:01;3.37;;;2.30;;
16642;SDS011;8435;52.184;5.406;2023-12-28T00:09:29;5.80;;;2.70;;
16642;SDS011;8435;52.184;5.406;2023-12-28T00:11:55;3.70;;;2.80;;
16642;SDS011;8435;52.184;5.406;2023-12-28T00:14:22;4.43;;;2.73;;
16642;SDS011;8435;52.184;5.406;2023-12-28T00:16:49;3.93;;;2.43;;
16642;SDS011;8435;52.184;5.406;2023-12-28T00:19:16;4.80;;;2.63;;
16642;SDS011;8435;52.184;5.406;2023-12-28T00:21:44;3.60;;;2.40;;
16642;SDS011;8435;52.184;5.406;2023-12-28T00:24:12;3.03;;;2.50;;
16642;SDS011;8435;52.184;5.406;2023-12-28T00:26:40;3.90;;;2.43;;
16642;SDS011;8435;52.184;5.406;2023-12-28T00:29:06;4.77;;;2.53;;
16642;SDS011;8435;52.184;5.406;2023-12-28T00:31:36;4.40;;;2.40;;
16642;SDS011;8435;52.184;5.406;2023-12-28T00:34:06;4.87;;;2.80;;
16642;SDS011;8435;52.184;5.406;2023-12-28T00:36:32;3.77;;;2.40;;
16642;SDS011;8435;52.184;5.406;2023-12-28T00:38:59;3.40;;;2.63;;
16642;SDS011;8435;52.184;5.406;2023-12-28T00:41:27;3.97;;;2.57;;
16642;SDS011;8435;52.184;5.406;2023-12-28T00:43:56;3.60;;;2.40;;
16642;SDS011;8435;52.184;5.406;2023-12-28T00:46:23;4.03;;;2.20;;
16642;SDS011;8435;52.184;5.406;2023-12-28T00:48:50;3.27;;;2.97;;
16642;SDS011;8435;52.184;5.406;2023-12-28T00:51:16;2.77;;;2.40;;
16642;SDS011;8435;52.184;5.406;2023-12-28T00:53:46;3.73;;;2.70;;
16642;SDS011;8435;52.184;5.406;2023-12-28T00:56:13;3.87;;;2.57;;
16642;SDS011;8435;52.184;5.406;2023-12-28T00:58:41;3.43;;;2.50;;
16642;SDS011;8435;52.184;5.406;2023-12-28T01:01:08;4.37;;;2.90;;
16642;SDS011;8435;52.184;5.406;2023-12-28T01:03:35;3.53;;;2.50;;
16642;SDS011;8435;52.184;5.406;2023-12-28T01:06:05;4.07;;;2.83;;
16642;SDS011;8435;52.184;5.406;2023-12-28T01:08:32;3.97;;;2.40;;
16642;SDS011;8435;52.184;5.406;2023-12-28T01:10:59;3.23;;;2.43;;
16642;SDS011;8435;52.184;5.406;2023-12-28T01:13:27;4.87;;;2.27;;
16642;SDS011;8435;52.184;5.406;2023-12-28T01:15:55;6.03;;;2.33;;
16642;SDS011;8435;52.184;5.406;2023-12-28T01:18:22;2.77;;;2.20;;
16642;SDS011;8435;52.184;5.406;2023-12-28T01:20:51;3.17;;;2.33;;
16642;SDS011;8435;52.184;5.406;2023-12-28T01:23:19;4.40;;;2.60;;
16642;SDS011;8435;52.184;5.406;2023-12-28T01:25:46;4.73;;;2.03;;
16642;SDS011;8435;52.184;5.406;2023-12-28T01:28:13;4.10;;;2.13;;
16642;SDS011;8435;52.184;5.406;2023-12-28T01:30:40;4.47;;;2.20;;
16642;SDS011;8435;52.184;5.406;2023-12-28T01:33:10;3.23;;;2.17;;
16642;SDS011;8435;52.184;5.406;2023-12-28T01:35:37;4.37;;;2.80;;
16642;SDS011;8435;52.184;5.406;2023-12-28T01:38:03;2.23;;;2.00;;
16642;SDS011;8435;52.184;5.406;2023-12-28T01:40:30;4.10;;;2.57;;
16642;SDS011;8435;52.184;5.406;2023-12-28T01:42:57;4.37;;;2.20;;
16642;SDS011;8435;52.184;5.406;2023-12-28T01:45:24;3.87;;;2.10;;
16642;SDS011;8435;52.184;5.406;2023-12-28T01:47:52;4.57;;;2.37;;
16642;SDS011;8435;52.184;5.406;2023-12-28T01:50:24;4.47;;;2.20;;
16642;SDS011;8435;52.184;5.406;2023-12-28T01:52:52;3.37;;;2.13;;
16642;SDS011;8435;52.184;5.406;2023-12-28T01:55:21;3.83;;;2.20;;
16642;SDS011;8435;52.184;5.406;2023-12-28T01:57:48;4.77;;;2.30;;
16642;SDS011;8435;52.184;5.406;2023-12-28T02:00:15;2.30;;;2.10;;
16642;SDS011;8435;52.184;5.406;2023-12-28T02:02:45;4.53;;;2.17;;
16642;SDS011;8435;52.184;5.406;2023-12-28T02:05:13;2.37;;;1.90;;
16642;SDS011;8435;52.184;5.406;2023-12-28T02:07:42;3.27;;;1.93;;
16642;SDS011;8435;52.184;5.406;2023-12-28T02:10:09;5.23;;;2.13;;
16642;SDS011;8435;52.184;5.406;2023-12-28T02:12:35;4.93;;;2.80;;
16642;SDS011;8435;52.184;5.406;2023-12-28T02:15:02;7.27;;;6.10;;
16642;SDS011;8435;52.184;5.406;2023-12-28T02:17:32;4.03;;;3.50;;
16642;SDS011;8435;52.184;5.406;2023-12-28T02:20:02;3.57;;;2.90;;
16642;SDS011;8435;52.184;5.406;2023-12-28T02:22:31;8.63;;;6.30;;
16642;SDS011;8435;52.184;5.406;2023-12-28T02:25:05;5.97;;;3.17;;
16642;SDS011;8435;52.184;5.406;2023-12-28T02:27:38;4.23;;;2.50;;
16642;SDS011;8435;52.184;5.406;2023-12-28T02:30:06;2.93;;;2.17;;
16642;SDS011;8435;52.184;5.406;2023-12-28T02:32:36;4.13;;;2.13;;
16642;SDS011;8435;52.184;5.406;2023-12-28T02:35:17;4.07;;;1.90;;
16642;SDS011;8435;52.184;5.406;2023-12-28T02:37:50;2.53;;;1.90;;
16642;SDS011;8435;52.184;5.406;2023-12-28T02:40:20;3.80;;;2.23;;
16642;SDS011;8435;52.184;5.406;2023-12-28T02:42:50;3.00;;;2.03;;
16642;SDS011;8435;52.184;5.406;2023-12-28T02:45:17;2.90;;;2.13;;
16642;SDS011;8435;52.184;5.406;2023-12-28T02:47:44;2.40;;;2.10;;
16642;SDS011;8435;52.184;5.406;2023-12-28T02:50:13;3.17;;;2.17;;
16642;SDS011;8435;52.184;5.406;2023-12-28T02:52:40;3.23;;;1.90;;
16642;SDS011;8435;52.184;5.406;2023-12-28T02:55:07;3.07;;;2.67;;
16642;SDS011;8435;52.184;5.406;2023-12-28T02:57:35;4.50;;;2.10;;
16642;SDS011;8435;52.184;5.406;2023-12-28T03:00:04;4.83;;;2.20;;
16642;SDS011;8435;52.184;5.406;2023-12-28T03:02:33;3.60;;;1.90;;
16642;SDS011;8435;52.184;5.406;2023-12-28T03:05:05;4.83;;;2.10;;
16642;SDS011;8435;52.184;5.406;2023-12-28T03:07:33;4.30;;;2.30;;
16642;SDS011;8435;52.184;5.406;2023-12-28T03:09:59;5.43;;;2.20;;
16642;SDS011;8435;52.184;5.406;2023-12-28T03:12:27;5.10;;;2.23;;
16642;SDS011;8435;52.184;5.406;2023-12-28T03:14:59;3.27;;;1.90;;
16642;SDS011;8435;52.184;5.406;2023-12-28T03:17:26;3.37;;;1.97;;
16642;SDS011;8435;52.184;5.406;2023-12-28T03:19:54;4.97;;;2.57;;
16642;SDS011;8435;52.184;5.406;2023-12-28T03:22:20;4.87;;;2.53;;
16642;SDS011;8435;52.184;5.406;2023-12-28T03:24:47;2.93;;;1.97;;
16642;SDS011;8435;52.184;5.406;2023-12-28T03:27:14;3.53;;;1.73;;
16642;SDS011;8435;52.184;5.406;2023-12-28T03:29:41;4.03;;;1.97;;
16642;SDS011;8435;52.184;5.406;2023-12-28T03:32:10;2.30;;;1.70;;
16642;SDS011;8435;52.184;5.406;2023-12-28T03:34:37;3.47;;;2.13;;
16642;SDS011;8435;52.184;5.406;2023-12-28T03:37:03;4.10;;;1.80;;
16642;SDS011;8435;52.184;5.406;2023-12-28T03:39:30;3.67;;;1.97;;
16642;SDS011;8435;52.184;5.406;2023-12-28T03:41:58;3.63;;;1.87;;
16642;SDS011;8435;52.184;5.406;2023-12-28T03:44:26;5.40;;;2.10;;
16642;SDS011;8435;52.184;5.406;2023-12-28T03:46:59;5.30;;;2.20;;
16642;SDS011;8435;52.184;5.406;2023-12-28T03:49:27;3.13;;;2.07;;
16642;SDS011;8435;52.184;5.406;2023-12-28T03:51:54;4.13;;;2.10;;
16642;SDS011;8435;52.184;5.406;2023-12-28T03:54:21;3.97;;;1.57;;
16642;SDS011;8435;52.184;5.406;2023-12-28T03:56:47;3.57;;;2.03;;
16642;SDS011;8435;52.184;5.406;2023-12-28T03:59:16;5.50;;;2.17;;
16642;SDS011;8435;52.184;5.406;2023-12-28T04:01:43;3.47;;;1.83;;
16642;SDS011;8435;52.184;5.406;2023-12-28T04:04:13;4.33;;;2.07;;
16642;SDS011;8435;52.184;5.406;2023-12-28T04:06:44;4.67;;;1.93;;
16642;SDS011;8435;52.184;5.406;2023-12-28T04:09:11;6.67;;;2.30;;
16642;SDS011;8435;52.184;5.406;2023-12-28T04:11:38;4.10;;;2.17;;
16642;SDS011;8435;52.184;5.406;2023-12-28T04:14:07;2.80;;;1.93;;
16642;SDS011;8435;52.184;5.406;2023-12-28T04:16:34;6.00;;;2.00;;
16642;SDS011;8435;52.184;5.406;2023-12-28T04:19:03;5.80;;;2.10;;
16642;SDS011;8435;52.184;5.406;2023-12-28T04:21:30;3.53;;;1.93;;
16642;SDS011;8435;52.184;5.406;2023-12-28T04:23:59;3.27;;;1.90;;
16642;SDS011;8435;52.184;5.406;2023-12-28T04:26:27;6.17;;;2.60;;
16642;SDS011;8435;52.184;5.406;2023-12-28T04:28:55;7.37;;;2.40;;
16642;SDS011;8435;52.184;5.406;2023-12-28T04:31:22;5.03;;;1.70;;
16642;SDS011;8435;52.184;5.406;2023-12-28T04:33:49;6.40;;;1.90;;
16642;SDS011;8435;52.184;5.406;2023-12-28T04:36:16;4.93;;;2.10;;
16642;SDS011;8435;52.184;5.406;2023-12-28T04:38:42;4.50;;;1.60;;
16642;SDS011;8435;52.184;5.406;2023-12-28T04:41:13;6.43;;;2.20;;
16642;SDS011;8435;52.184;5.406;2023-12-28T04:43:40;5.93;;;1.97;;
16642;SDS011;8435;52.184;5.406;2023-12-28T04:46:09;4.80;;;2.07;;
16642;SDS011;8435;52.184;5.406;2023-12-28T04:48:36;4.17;;;1.90;;
16642;SDS011;8435;52.184;5.406;2023-12-28T04:51:06;8.10;;;2.07;;
16642;SDS011;8435;52.184;5.406;2023-12-28T04:53:33;7.33;;;2.57;;
16642;SDS011;8435;52.184;5.406;2023-12-28T04:56:00;6.60;;;2.03;;
16642;SDS011;8435;52.184;5.406;2023-12-28T04:58:28;5.77;;;1.90;;
16642;SDS011;8435;52.184;5.406;2023-12-28T05:00:54;4.97;;;1.97;;
16642;SDS011;8435;52.184;5.406;2023-12-28T05:03:21;3.87;;;1.67;;
16642;SDS011;8435;52.184;5.406;2023-12-28T05:05:51;6.27;;;2.10;;
16642;SDS011;8435;52.184;5.406;2023-12-28T05:08:17;7.87;;;1.90;;
16642;SDS011;8435;52.184;5.406;2023-12-28T05:10:44;4.60;;;1.87;;
16642;SDS011;8435;52.184;5.406;2023-12-28T05:13:11;3.73;;;1.60;;
16642;SDS011;8435;52.184;5.406;2023-12-28T05:15:39;7.63;;;2.10;;
16642;SDS011;8435;52.184;5.406;2023-12-28T05:18:06;7.13;;;2.10;;
16642;SDS011;8435;52.184;5.406;2023-12-28T05:20:34;5.20;;;1.90;;
16642;SDS011;8435;52.184;5.406;2023-12-28T05:23:00;4.73;;;1.93;;
16642;SDS011;8435;52.184;5.406;2023-12-28T05:25:27;7.30;;;1.93;;
16642;SDS011;8435;52.184;5.406;2023-12-28T05:27:54;4.43;;;1.80;;
16642;SDS011;8435;52.184;5.406;2023-12-28T05:30:21;5.67;;;2.00;;
16642;SDS011;8435;52.184;5.406;2023-12-28T05:32:49;6.13;;;2.17;;
16642;SDS011;8435;52.184;5.406;2023-12-28T05:35:16;8.30;;;2.20;;
16642;SDS011;8435;52.184;5.406;2023-12-28T05:37:43;10.73;;;2.50;;
16642;SDS011;8435;52.184;5.406;2023-12-28T05:40:10;6.00;;;2.03;;
16642;SDS011;8435;52.184;5.406;2023-12-28T05:42:38;6.83;;;1.97;;
16642;SDS011;8435;52.184;5.406;2023-12-28T05:45:06;6.67;;;1.80;;
16642;SDS011;8435;52.184;5.406;2023-12-28T05:47:33;7.37;;;2.03;;
16642;SDS011;8435;52.184;5.406;2023-12-28T05:50:02;6.27;;;1.90;;
16642;SDS011;8435;52.184;5.406;2023-12-28T05:52:30;8.97;;;2.10;;
16642;SDS011;8435;52.184;5.406;2023-12-28T05:54:57;6.87;;;2.20;;
16642;SDS011;8435;52.184;5.406;2023-12-28T05:57:24;8.20;;;1.90;;
16642;SDS011;8435;52.184;5.406;2023-12-28T05:59:54;8.67;;;2.23;;
16642;SDS011;8435;52.184;5.406;2023-12-28T06:02:22;9.17;;;2.60;;
16642;SDS011;8435;52.184;5.406;2023-12-28T06:04:49;8.17;;;2.70;;
16642;SDS011;8435;52.184;5.406;2023-12-28T06:07:17;11.30;;;2.33;;
16642;SDS011;8435;52.184;5.406;2023-12-28T06:09:44;9.80;;;2.40;;
16642;SDS011;8435;52.184;5.406;2023-12-28T06:12:11;7.37;;;2.30;;
16642;SDS011;8435;52.184;5.406;2023-12-28T06:14:38;9.03;;;2.60;;
16642;SDS011;8435;52.184;5.406;2023-12-28T06:17:04;7.20;;;2.53;;
16642;SDS011;8435;52.184;5.406;2023-12-28T06:19:31;8.70;;;2.47;;
16642;SDS011;8435;52.184;5.406;2023-12-28T06:21:58;8.50;;;1.90;;
16642;SDS011;8435;52.184;5.406;2023-12-28T06:24:26;6.00;;;2.10;;
16642;SDS011;8435;52.184;5.406;2023-12-28T06:26:53;8.30;;;2.33;;
16642;SDS011;8435;52.184;5.406;2023-12-28T06:29:19;8.50;;;2.13;;
16642;SDS011;8435;52.184;5.406;2023-12-28T06:31:46;11.30;;;2.87;;
16642;SDS011;8435;52.184;5.406;2023-12-28T06:34:13;12.70;;;2.57;;
16642;SDS011;8435;52.184;5.406;2023-12-28T06:36:43;8.30;;;2.20;;
16642;SDS011;8435;52.184;5.406;2023-12-28T06:39:10;12.10;;;2.83;;
16642;SDS011;8435;52.184;5.406;2023-12-28T06:41:38;6.90;;;2.20;;
16642;SDS011;8435;52.184;5.406;2023-12-28T06:44:05;8.87;;;2.80;;
16642;SDS011;8435;52.184;5.406;2023-12-28T06:46:32;8.67;;;2.73;;
16642;SDS011;8435;52.184;5.406;2023-12-28T06:48:58;8.70;;;2.53;;
16642;SDS011;8435;52.184;5.406;2023-12-28T06:51:25;11.87;;;3.10;;
16642;SDS011;8435;52.184;5.406;2023-12-28T06:53:52;9.10;;;2.10;;
16642;SDS011;8435;52.184;5.406;2023-12-28T06:56:19;6.93;;;2.27;;
16642;SDS011;8435;52.184;5.406;2023-12-28T06:58:47;8.87;;;2.50;;
16642;SDS011;8435;52.184;5.406;2023-12-28T07:01:14;9.13;;;2.70;;
16642;SDS011;8435;52.184;5.406;2023-12-28T07:03:40;9.97;;;2.80;;
16642;SDS011;8435;52.184;5.406;2023-12-28T07:06:07;9.13;;;2.63;;
16642;SDS011;8435;52.184;5.406;2023-12-28T07:08:34;9.07;;;2.83;;
16642;SDS011;8435;52.184;5.406;2023-12-28T07:11:01;7.33;;;2.73;;
16642;SDS011;8435;52.184;5.406;2023-12-28T07:13:28;8.07;;;2.17;;
16642;SDS011;8435;52.184;5.406;2023-12-28T07:15:56;9.67;;;2.90;;
16642;SDS011;8435;52.184;5.406;2023-12-28T07:18:23;10.63;;;3.13;;
16642;SDS011;8435;52.184;5.406;2023-12-28T07:20:50;10.73;;;3.00;;
16642;SDS011;8435;52.184;5.406;2023-12-28T07:23:17;9.17;;;3.10;;
16642;SDS011;8435;52.184;5.406;2023-12-28T07:25:43;10.97;;;3.00;;
16642;SDS011;8435;52.184;5.406;2023-12-28T07:28:10;10.37;;;2.70;;
16642;SDS011;8435;52.184;5.406;2023-12-28T07:30:37;11.10;;;2.67;;
16642;SDS011;8435;52.184;5.406;2023-12-28T07:33:05;12.93;;;2.73;;
16642;SDS011;8435;52.184;5.406;2023-12-28T07:35:32;6.87;;;2.87;;
16642;SDS011;8435;52.184;5.406;2023-12-28T07:37:59;9.53;;;2.67;;
16642;SDS011;8435;52.184;5.406;2023-12-28T07:40:27;9.00;;;2.60;;
16642;SDS011;8435;52.184;5.406;2023-12-28T07:42:54;8.50;;;2.80;;
16642;SDS011;8435;52.184;5.406;2023-12-28T07:45:21;8.30;;;2.47;;
16642;SDS011;8435;52.184;5.406;2023-12-28T07:47:49;7.97;;;2.70;;
16642;SDS011;8435;52.184;5.406;2023-12-28T07:50:18;9.83;;;2.60;;
16642;SDS011;8435;52.184;5.406;2023-12-28T07:52:45;8.03;;;2.43;;
16642;SDS011;8435;52.184;5.406;2023-12-28T07:55:12;11.20;;;2.87;;
16642;SDS011;8435;52.184;5.406;2023-12-28T07:57:40;15.97;;;2.77;;
16642;SDS011;8435;52.184;5.406;2023-12-28T08:00:07;8.13;;;2.43;;
16642;SDS011;8435;52.184;5.406;2023-12-28T08:02:34;8.53;;;2.63;;
16642;SDS011;8435;52.184;5.406;2023-12-28T08:05:00;8.27;;;2.67;;
16642;SDS011;8435;52.184;5.406;2023-12-28T08:07:28;10.53;;;2.27;;
16642;SDS011;8435;52.184;5.406;2023-12-28T08:09:55;8.07;;;2.57;;
16642;SDS011;8435;52.184;5.406;2023-12-28T08:12:22;7.23;;;2.33;;
16642;SDS011;8435;52.184;5.406;2023-12-28T08:14:49;8.47;;;2.43;;
16642;SDS011;8435;52.184;5.406;2023-12-28T08:17:16;8.83;;;2.43;;
16642;SDS011;8435;52.184;5.406;2023-12-28T08:19:43;6.27;;;2.37;;
16642;SDS011;8435;52.184;5.406;2023-12-28T08:22:09;8.50;;;2.40;;
16642;SDS011;8435;52.184;5.406;2023-12-28T08:24:37;9.97;;;2.53;;
16642;SDS011;8435;52.184;5.406;2023-12-28T08:27:04;8.40;;;2.80;;
16642;SDS011;8435;52.184;5.406;2023-12-28T08:29:31;8.03;;;2.77;;
16642;SDS011;8435;52.184;5.406;2023-12-28T08:32:01;8.90;;;2.63;;
16642;SDS011;8435;52.184;5.406;2023-12-28T08:34:28;10.10;;;2.90;;
16642;SDS011;8435;52.184;5.406;2023-12-28T08:36:55;7.50;;;3.03;;
16642;SDS011;8435;52.184;5.406;2023-12-28T08:39:22;6.43;;;2.43;;
16642;SDS011;8435;52.184;5.406;2023-12-28T08:41:50;9.67;;;3.20;;
16642;SDS011;8435;52.184;5.406;2023-12-28T08:44:17;11.93;;;3.10;;
16642;SDS011;8435;52.184;5.406;2023-12-28T08:46:43;13.03;;;2.63;;
16642;SDS011;8435;52.184;5.406;2023-12-28T08:49:11;8.43;;;2.23;;
16642;SDS011;8435;52.184;5.406;2023-12-28T08:51:40;11.27;;;3.40;;
16642;SDS011;8435;52.184;5.406;2023-12-28T08:54:07;9.37;;;2.27;;
16642;SDS011;8435;52.184;5.406;2023-12-28T08:56:34;11.03;;;3.20;;
16642;SDS011;8435;52.184;5.406;2023-12-28T08:59:02;9.30;;;2.50;;
16642;SDS011;8435;52.184;5.406;2023-12-28T09:01:29;7.57;;;2.33;;
16642;SDS011;8435;52.184;5.406;2023-12-28T09:03:56;12.83;;;2.77;;
16642;SDS011;8435;52.184;5.406;2023-12-28T09:06:24;13.17;;;3.20;;
16642;SDS011;8435;52.184;5.406;2023-12-28T09:08:51;14.07;;;2.67;;
16642;SDS011;8435;52.184;5.406;2023-12-28T09:11:21;8.20;;;2.27;;
16642;SDS011;8435;52.184;5.406;2023-12-28T09:13:47;8.57;;;2.10;;
16642;SDS011;8435;52.184;5.406;2023-12-28T09:16:16;12.80;;;2.97;;
16642;SDS011;8435;52.184;5.406;2023-12-28T09:18:42;8.07;;;2.77;;
16642;SDS011;8435;52.184;5.406;2023-12-28T09:21:09;7.67;;;3.10;;
16642;SDS011;8435;52.184;5.406;2023-12-28T09:23:36;9.00;;;2.37;;
16642;SDS011;8435;52.184;5.406;2023-12-28T09:26:05;11.27;;;2.80;;
16642;SDS011;8435;52.184;5.406;2023-12-28T09:28:32;12.57;;;3.00;;
16642;SDS011;8435;52.184;5.406;2023-12-28T09:30:59;7.03;;;2.73;;
16642;SDS011;8435;52.184;5.406;2023-12-28T09:33:28;11.30;;;2.87;;
16642;SDS011;8435;52.184;5.406;2023-12-28T09:35:55;12.60;;;2.73;;
16642;SDS011;8435;52.184;5.406;2023-12-28T09:38:24;8.73;;;2.50;;
16642;SDS011;8435;52.184;5.406;2023-12-28T09:40:52;6.33;;;2.23;;
16642;SDS011;8435;52.184;5.406;2023-12-28T09:43:21;8.50;;;2.50;;
16642;SDS011;8435;52.184;5.406;2023-12-28T09:45:49;10.13;;;2.70;;
16642;SDS011;8435;52.184;5.406;2023-12-28T09:48:16;9.37;;;2.73;;
16642;SDS011;8435;52.184;5.406;2023-12-28T09:50:45;11.17;;;3.23;;
16642;SDS011;8435;52.184;5.406;2023-12-28T09:53:14;12.43;;;3.27;;
16642;SDS011;8435;52.184;5.406;2023-12-28T09:55:44;10.37;;;2.40;;
16642;SDS011;8435;52.184;5.406;2023-12-28T09:58:12;9.00;;;2.70;;
16642;SDS011;8435;52.184;5.406;2023-12-28T10:00:44;11.17;;;2.43;;
16642;SDS011;8435;52.184;5.406;2023-12-28T10:03:14;7.40;;;2.67;;
16642;SDS011;8435;52.184;5.406;2023-12-28T10:05:46;7.57;;;2.90;;
16642;SDS011;8435;52.184;5.406;2023-12-28T10:08:16;9.07;;;2.63;;
16642;SDS011;8435;52.184;5.406;2023-12-28T10:10:43;9.80;;;2.77;;
16642;SDS011;8435;52.184;5.406;2023-12-28T10:13:15;11.07;;;3.13;;
16642;SDS011;8435;52.184;5.406;2023-12-28T10:15:43;8.97;;;2.80;;
16642;SDS011;8435;52.184;5.406;2023-12-28T10:18:10;13.10;;;2.80;;
16642;SDS011;8435;52.184;5.406;2023-12-28T10:20:37;10.53;;;2.63;;
16642;SDS011;8435;52.184;5.406;2023-12-28T10:23:05;10.00;;;2.90;;
16642;SDS011;8435;52.184;5.406;2023-12-28T10:25:32;10.13;;;2.33;;
16642;SDS011;8435;52.184;5.406;2023-12-28T10:28:03;12.20;;;2.80;;
16642;SDS011;8435;52.184;5.406;2023-12-28T10:30:30;11.70;;;2.60;;
16642;SDS011;8435;52.184;5.406;2023-12-28T10:32:57;10.13;;;2.50;;
16642;SDS011;8435;52.184;5.406;2023-12-28T10:35:24;10.53;;;2.77;;
16642;SDS011;8435;52.184;5.406;2023-12-28T10:37:51;11.37;;;3.50;;
16642;SDS011;8435;52.184;5.406;2023-12-28T10:40:20;10.80;;;3.10;;
16642;SDS011;8435;52.184;5.406;2023-12-28T10:42:50;7.37;;;3.00;;
16642;SDS011;8435;52.184;5.406;2023-12-28T10:45:24;10.83;;;2.97;;
16642;SDS011;8435;52.184;5.406;2023-12-28T10:47:53;7.57;;;3.17;;
16642;SDS011;8435;52.184;5.406;2023-12-28T10:50:26;11.93;;;3.10;;
16642;SDS011;8435;52.184;5.406;2023-12-28T10:53:00;10.43;;;3.40;;
16642;SDS011;8435;52.184;5.406;2023-12-28T10:55:40;10.23;;;3.10;;
16642;SDS011;8435;52.184;5.406;2023-12-28T10:58:16;10.07;;;2.63;;
16642;SDS011;8435;52.184;5.406;2023-12-28T11:00:52;10.67;;;2.93;;
16642;SDS011;8435;52.184;5.406;2023-12-28T11:03:28;9.23;;;2.50;;
16642;SDS011;8435;52.184;5.406;2023-12-28T11:06:00;14.00;;;3.20;;
16642;SDS011;8435;52.184;5.406;2023-12-28T11:08:28;10.70;;;2.73;;
16642;SDS011;8435;52.184;5.406;2023-12-28T11:10:59;8.67;;;2.90;;
16642;SDS011;8435;52.184;5.406;2023-12-28T11:13:29;10.20;;;2.80;;
16642;SDS011;8435;52.184;5.406;2023-12-28T11:15:58;14.80;;;3.37;;
16642;SDS011;8435;52.184;5.406;2023-12-28T11:18:26;7.60;;;2.70;;
16642;SDS011;8435;52.184;5.406;2023-12-28T11:20:55;11.47;;;3.10;;
16642;SDS011;8435;52.184;5.406;2023-12-28T11:23:23;9.60;;;2.60;;
16642;SDS011;8435;52.184;5.406;2023-12-28T11:25:50;11.77;;;2.80;;
16642;SDS011;8435;52.184;5.406;2023-12-28T11:28:19;14.37;;;2.93;;
16642;SDS011;8435;52.184;5.406;2023-12-28T11:30:46;14.30;;;3.73;;
16642;SDS011;8435;52.184;5.406;2023-12-28T11:33:13;10.27;;;3.07;;
16642;SDS011;8435;52.184;5.406;2023-12-28T11:35:43;9.07;;;2.70;;
16642;SDS011;8435;52.184;5.406;2023-12-28T11:38:13;10.50;;;2.93;;
16642;SDS011;8435;52.184;5.406;2023-12-28T11:40:46;14.37;;;3.50;;
16642;SDS011;8435;52.184;5.406;2023-12-28T11:43:18;10.97;;;3.20;;
16642;SDS011;8435;52.184;5.406;2023-12-28T11:45:46;13.00;;;3.47;;
16642;SDS011;8435;52.184;5.406;2023-12-28T11:48:23;13.90;;;8.50;;
16642;SDS011;8435;52.184;5.406;2023-12-28T11:50:54;9.33;;;4.10;;
16642;SDS011;8435;52.184;5.406;2023-12-28T11:53:23;11.83;;;3.53;;
16642;SDS011;8435;52.184;5.406;2023-12-28T11:55:50;12.23;;;3.50;;
16642;SDS011;8435;52.184;5.406;2023-12-28T11:58:19;11.93;;;3.67;;
16642;SDS011;8435;52.184;5.406;2023-12-28T12:00:47;11.97;;;2.90;;
16642;SDS011;8435;52.184;5.406;2023-12-28T12:03:13;9.10;;;3.13;;
16642;SDS011;8435;52.184;5.406;2023-12-28T12:05:44;12.47;;;3.33;;
16642;SDS011;8435;52.184;5.406;2023-12-28T12:08:11;8.93;;;2.73;;
16642;SDS011;8435;52.184;5.406;2023-12-28T12:10:39;11.57;;;3.00;;
16642;SDS011;8435;52.184;5.406;2023-12-28T12:13:09;8.97;;;3.00;;
16642;SDS011;8435;52.184;5.406;2023-12-28T12:15:38;11.40;;;3.33;;
16642;SDS011;8435;52.184;5.406;2023-12-28T12:18:05;10.07;;;2.40;;
16642;SDS011;8435;52.184;5.406;2023-12-28T12:20:32;12.57;;;3.67;;
16642;SDS011;8435;52.184;5.406;2023-12-28T12:23:00;13.53;;;3.53;;
16642;SDS011;8435;52.184;5.406;2023-12-28T12:25:28;13.43;;;3.47;;
16642;SDS011;8435;52.184;5.406;2023-12-28T12:27:54;9.10;;;2.90;;
16642;SDS011;8435;52.184;5.406;2023-12-28T12:30:21;10.87;;;3.60;;
16642;SDS011;8435;52.184;5.406;2023-12-28T12:32:49;10.73;;;3.60;;
16642;SDS011;8435;52.184;5.406;2023-12-28T12:35:16;14.47;;;3.40;;
16642;SDS011;8435;52.184;5.406;2023-12-28T12:37:46;9.00;;;2.80;;
16642;SDS011;8435;52.184;5.406;2023-12-28T12:40:14;13.00;;;3.13;;
16642;SDS011;8435;52.184;5.406;2023-12-28T12:42:42;13.23;;;3.47;;
16642;SDS011;8435;52.184;5.406;2023-12-28T12:45:17;12.27;;;3.03;;
16642;SDS011;8435;52.184;5.406;2023-12-28T12:47:45;8.23;;;3.10;;
16642;SDS011;8435;52.184;5.406;2023-12-28T12:50:14;9.80;;;3.00;;
16642;SDS011;8435;52.184;5.406;2023-12-28T12:52:41;9.60;;;2.93;;
16642;SDS011;8435;52.184;5.406;2023-12-28T12:55:10;10.17;;;3.20;;
16642;SDS011;8435;52.184;5.406;2023-12-28T12:57:37;10.83;;;3.30;;
16642;SDS011;8435;52.184;5.406;2023-12-28T13:00:05;11.73;;;3.13;;
16642;SDS011;8435;52.184;5.406;2023-12-28T13:02:34;11.70;;;3.40;;
16642;SDS011;8435;52.184;5.406;2023-12-28T13:05:02;8.80;;;3.13;;
16642;SDS011;8435;52.184;5.406;2023-12-28T13:07:31;13.33;;;3.67;;
16642;SDS011;8435;52.184;5.406;2023-12-28T13:09:58;11.87;;;3.27;;
16642;SDS011;8435;52.184;5.406;2023-12-28T13:12:25;12.73;;;2.63;;
16642;SDS011;8435;52.184;5.406;2023-12-28T13:14:52;12.37;;;2.73;;
16642;SDS011;8435;52.184;5.406;2023-12-28T13:17:19;8.70;;;2.90;;
16642;SDS011;8435;52.184;5.406;2023-12-28T13:19:46;11.80;;;3.33;;
16642;SDS011;8435;52.184;5.406;2023-12-28T13:22:13;10.93;;;3.03;;
16642;SDS011;8435;52.184;5.406;2023-12-28T13:24:44;11.47;;;3.57;;
16642;SDS011;8435;52.184;5.406;2023-12-28T13:27:11;8.50;;;2.93;;
16642;SDS011;8435;52.184;5.406;2023-12-28T13:29:39;10.70;;;2.70;;
16642;SDS011;8435;52.184;5.406;2023-12-28T13:32:06;8.70;;;2.47;;
16642;SDS011;8435;52.184;5.406;2023-12-28T13:34:35;12.80;;;3.50;;
16642;SDS011;8435;52.184;5.406;2023-12-28T13:37:02;10.50;;;2.60;;
16642;SDS011;8435;52.184;5.406;2023-12-28T13:39:29;10.43;;;3.10;;
16642;SDS011;8435;52.184;5.406;2023-12-28T13:41:58;10.57;;;3.07;;
16642;SDS011;8435;52.184;5.406;2023-12-28T13:44:27;10.17;;;2.97;;
16642;SDS011;8435;52.184;5.406;2023-12-28T13:46:57;10.17;;;3.17;;
16642;SDS011;8435;52.184;5.406;2023-12-28T13:49:23;8.87;;;3.10;;
16642;SDS011;8435;52.184;5.406;2023-12-28T13:51:51;7.87;;;2.73;;
16642;SDS011;8435;52.184;5.406;2023-12-28T13:54:18;9.87;;;2.67;;
16642;SDS011;8435;52.184;5.406;2023-12-28T13:56:45;11.33;;;2.40;;
16642;SDS011;8435;52.184;5.406;2023-12-28T13:59:14;11.83;;;3.20;;
16642;SDS011;8435;52.184;5.406;2023-12-28T14:01:41;12.67;;;2.63;;
16642;SDS011;8435;52.184;5.406;2023-12-28T14:04:08;13.87;;;3.00;;
16642;SDS011;8435;52.184;5.406;2023-12-28T14:06:35;9.70;;;2.50;;
16642;SDS011;8435;52.184;5.406;2023-12-28T14:09:01;7.93;;;3.07;;
16642;SDS011;8435;52.184;5.406;2023-12-28T14:11:28;10.47;;;2.83;;
16642;SDS011;8435;52.184;5.406;2023-12-28T14:13:55;7.93;;;2.93;;
16642;SDS011;8435;52.184;5.406;2023-12-28T14:16:26;11.83;;;3.17;;
16642;SDS011;8435;52.184;5.406;2023-12-28T14:18:54;10.50;;;2.97;;
16642;SDS011;8435;52.184;5.406;2023-12-28T14:21:24;9.03;;;2.57;;
16642;SDS011;8435;52.184;5.406;2023-12-28T14:23:51;14.27;;;3.17;;
16642;SDS011;8435;52.184;5.406;2023-12-28T14:26:19;9.23;;;2.87;;
16642;SDS011;8435;52.184;5.406;2023-12-28T14:28:48;12.63;;;3.30;;
16642;SDS011;8435;52.184;5.406;2023-12-28T14:31:15;10.67;;;2.63;;
16642;SDS011;8435;52.184;5.406;2023-12-28T14:33:44;11.07;;;2.97;;
16642;SDS011;8435;52.184;5.406;2023-12-28T14:36:14;11.70;;;3.27;;
16642;SDS011;8435;52.184;5.406;2023-12-28T14:38:47;13.57;;;3.37;;
16642;SDS011;8435;52.184;5.406;2023-12-28T14:41:13;9.33;;;2.73;;
16642;SDS011;8435;52.184;5.406;2023-12-28T14:43:40;9.83;;;3.03;;
16642;SDS011;8435;52.184;5.406;2023-12-28T14:46:10;13.83;;;7.53;;
16642;SDS011;8435;52.184;5.406;2023-12-28T14:48:37;13.00;;;4.47;;
16642;SDS011;8435;52.184;5.406;2023-12-28T14:51:05;9.40;;;3.13;;
16642;SDS011;8435;52.184;5.406;2023-12-28T14:53:31;11.17;;;4.00;;
16642;SDS011;8435;52.184;5.406;2023-12-28T14:55:58;12.10;;;3.47;;
16642;SDS011;8435;52.184;5.406;2023-12-28T14:58:25;11.30;;;3.30;;
16642;SDS011;8435;52.184;5.406;2023-12-28T15:00:52;10.27;;;3.13;;
16642;SDS011;8435;52.184;5.406;2023-12-28T15:03:19;8.20;;;2.87;;